createdAt,value
2023-05-18T00:02:09.333Z,152801.41
2023-05-18T00:04:40.695Z,152788.50
2023-05-18T00:07:15.111Z,152797.53
2023-05-18T00:09:45.515Z,152807.94
2023-05-18T00:12:16.152Z,152793.69
2023-05-18T00:14:46.536Z,152789.78
2023-05-18T00:17:17.460Z,152793.69
2023-05-18T00:19:50.686Z,152810.50
2023-05-18T00:22:24.049Z,152794.97
2023-05-18T00:24:54.612Z,152787.19
2023-05-18T00:27:27.229Z,152789.78
2023-05-18T00:29:57.627Z,152796.25
2023-05-18T00:32:27.967Z,152787.19
2023-05-18T00:34:58.804Z,152791.06
2023-05-18T00:37:31.977Z,152789.78
2023-05-18T00:40:02.230Z,152792.34
2023-05-18T00:42:32.692Z,152794.97
2023-05-18T00:45:03.478Z,152802.75
2023-05-18T00:47:33.740Z,152783.34
2023-05-18T00:50:04.732Z,152787.19
2023-05-18T00:52:39.556Z,152796.25
2023-05-18T00:55:12.654Z,152787.19
2023-05-18T00:57:45.892Z,152797.53
2023-05-18T01:00:17.657Z,152793.69
2023-05-18T01:02:51.627Z,152809.22
2023-05-18T01:05:23.206Z,152797.53
2023-05-18T01:07:56.772Z,152805.31
2023-05-18T01:10:27.002Z,152787.19
2023-05-18T01:13:01.008Z,152802.75
2023-05-18T01:15:37.114Z,152789.78
2023-05-18T01:18:15.459Z,152789.78
2023-05-18T01:20:50.941Z,152783.34
2023-05-18T01:23:57.230Z,152788.50
2023-05-18T01:26:33.385Z,152787.19
2023-05-18T01:29:08.624Z,152774.28
2023-05-18T01:31:40.097Z,152783.34
2023-05-18T01:34:10.359Z,152800.13
2023-05-18T01:36:40.535Z,152807.94
2023-05-18T01:39:12.150Z,152800.13
2023-05-18T01:41:54.526Z,152788.50
2023-05-18T01:44:31.772Z,152797.53
2023-05-18T01:47:07.688Z,152779.44
2023-05-18T01:49:41.706Z,152787.19
2023-05-18T01:52:15.157Z,152784.63
2023-05-18T01:54:49.212Z,152778.16
2023-05-18T01:57:27.026Z,152785.91
2023-05-18T02:00:00.383Z,152776.84
2023-05-18T02:02:31.369Z,152774.28
2023-05-18T02:05:02.045Z,152776.84
2023-05-18T02:07:32.492Z,152771.66
2023-05-18T02:10:02.635Z,152787.19
2023-05-18T02:12:37.390Z,152793.69
2023-05-18T02:15:10.785Z,152791.06
2023-05-18T02:17:41.017Z,152772.94
2023-05-18T02:20:12.741Z,152794.97
2023-05-18T02:22:42.945Z,152805.31
2023-05-18T02:25:13.831Z,152794.97
2023-05-18T02:27:47.004Z,152792.34
2023-05-18T02:30:18.552Z,152791.06
2023-05-18T02:32:49.495Z,152810.50
2023-05-18T02:35:20.274Z,152793.69
2023-05-18T02:37:50.513Z,152792.34
2023-05-18T02:40:21.277Z,152767.78
2023-05-18T02:42:54.177Z,152770.38
2023-05-18T02:45:26.178Z,152770.38
2023-05-18T02:47:59.048Z,152770.38
2023-05-18T02:50:29.483Z,152771.66
2023-05-18T02:52:59.984Z,152754.88
2023-05-18T02:55:31.636Z,152770.38
2023-05-18T02:58:28.937Z,152756.16
2023-05-18T03:01:22.568Z,152767.78
2023-05-18T03:03:57.969Z,152748.41
2023-05-18T03:06:30.627Z,152739.34
2023-05-18T03:09:01.839Z,152744.53
2023-05-18T03:11:38.360Z,152717.31
2023-05-18T03:14:11.531Z,152729.00
2023-05-18T03:16:41.699Z,152734.16
2023-05-18T03:19:16.785Z,152734.16
2023-05-18T03:21:49.718Z,152727.66
2023-05-18T03:24:20.676Z,152729.00
2023-05-18T03:26:54.689Z,152743.19
2023-05-18T03:29:30.686Z,152748.41
2023-05-18T03:32:02.838Z,152748.41
2023-05-18T03:34:33.293Z,152740.63
2023-05-18T03:37:03.508Z,152732.84
2023-05-18T03:39:35.995Z,152732.84
2023-05-18T03:42:06.472Z,152722.50
2023-05-18T03:44:39.766Z,152717.31
2023-05-18T03:47:10.154Z,152730.28
2023-05-18T03:49:40.804Z,152723.81
2023-05-18T03:52:11.680Z,152718.59
2023-05-18T03:54:43.017Z,152726.38
2023-05-18T03:57:13.438Z,152718.59
2023-05-18T03:59:46.914Z,152718.59
2023-05-18T04:02:17.616Z,152732.84
2023-05-18T04:04:48.740Z,152739.34
2023-05-18T04:07:22.351Z,152760.03
2023-05-18T04:09:53.280Z,152761.31
2023-05-18T04:12:23.641Z,152752.25
2023-05-18T04:14:56.610Z,152753.59
2023-05-18T04:17:26.780Z,152766.50
2023-05-18T04:19:57.143Z,152782.00
2023-05-18T04:22:30.100Z,152769.09
2023-05-18T04:25:02.139Z,152761.31
2023-05-18T04:27:32.441Z,152758.75
2023-05-18T04:30:05.720Z,152757.44
2023-05-18T04:32:36.865Z,152763.94
2023-05-18T04:35:07.884Z,152749.69
2023-05-18T04:37:40.614Z,152747.09
2023-05-18T04:40:17.722Z,152763.94
2023-05-18T04:42:49.620Z,152785.91
2023-05-18T04:45:34.610Z,152763.94
2023-05-18T04:48:05.063Z,152787.19
2023-05-18T04:50:36.084Z,152772.94
2023-05-18T04:53:09.405Z,152791.06
2023-05-18T04:55:42.987Z,152782.00
2023-05-18T04:58:15.728Z,152778.16
2023-05-18T05:00:49.206Z,152783.34
2023-05-18T05:03:19.524Z,152796.25
2023-05-18T05:05:50.070Z,152788.50
2023-05-18T05:08:20.444Z,152789.78
2023-05-18T05:10:53.838Z,152791.06
2023-05-18T05:13:24.313Z,152789.78
2023-05-18T05:15:57.352Z,152774.28
2023-05-18T05:18:28.888Z,152782.00
2023-05-18T05:20:59.732Z,152787.19
2023-05-18T05:23:30.549Z,152792.34
2023-05-18T05:26:01.250Z,152796.25
2023-05-18T05:28:33.026Z,152789.78
2023-05-18T05:31:06.440Z,152769.09
2023-05-18T05:33:38.327Z,152772.94
2023-05-18T05:36:09.207Z,152789.78
2023-05-18T05:38:39.604Z,152791.06
2023-05-18T05:41:10.357Z,152774.28
2023-05-18T05:43:41.321Z,152770.38
2023-05-18T05:46:14.257Z,152778.16
2023-05-18T05:48:44.812Z,152765.22
2023-05-18T05:51:15.388Z,152758.75
2023-05-18T05:53:48.126Z,152788.50
2023-05-18T05:56:20.457Z,152785.91
2023-05-18T05:58:50.895Z,152782.00
2023-05-18T06:01:23.717Z,152789.78
2023-05-18T06:03:54.468Z,152782.00
2023-05-18T06:06:25.075Z,152792.34
2023-05-18T06:08:55.856Z,152792.34
2023-05-18T06:11:27.078Z,152782.00
2023-05-18T06:13:57.668Z,152810.50
2023-05-18T06:16:31.758Z,152802.75
2023-05-18T06:19:03.789Z,152814.38
2023-05-18T06:21:34.621Z,152827.28
2023-05-18T06:24:06.702Z,152829.91
2023-05-18T06:26:47.075Z,152840.25
2023-05-18T06:29:40.860Z,152835.06
2023-05-18T06:32:32.671Z,152849.31
2023-05-18T06:35:04.389Z,152857.06
2023-05-18T06:37:35.884Z,152880.38
2023-05-18T06:40:08.551Z,152862.28
2023-05-18T06:42:38.945Z,152888.16
2023-05-18T06:45:37.220Z,152889.44
2023-05-18T06:48:18.861Z,152901.06
2023-05-18T06:50:49.066Z,152929.56
2023-05-18T06:53:19.304Z,152902.41
2023-05-18T06:55:49.930Z,152902.41
2023-05-18T06:58:20.449Z,152902.41
2023-05-18T07:00:51.689Z,152903.69
2023-05-18T07:03:24.544Z,152924.38
2023-05-18T07:05:55.087Z,152910.13
2023-05-18T07:08:25.804Z,152899.78
2023-05-18T07:10:58.599Z,152907.56
2023-05-18T07:13:29.500Z,152911.41
2023-05-18T07:16:00.609Z,152941.22
2023-05-18T07:18:34.481Z,152952.91
2023-05-18T07:21:04.571Z,152978.78
2023-05-18T07:23:35.025Z,152938.63
2023-05-18T07:26:05.248Z,152939.91
2023-05-18T07:28:35.556Z,152937.34
2023-05-18T07:31:06.052Z,152955.47
2023-05-18T07:33:41.605Z,152954.19
2023-05-18T07:36:12.275Z,152971.06
2023-05-18T07:38:42.620Z,152990.44
2023-05-18T07:41:13.185Z,152969.72
2023-05-18T07:43:43.443Z,152971.06
2023-05-18T07:46:13.691Z,152977.50
2023-05-18T07:48:46.631Z,152991.75
2023-05-18T07:51:17.399Z,153012.47
2023-05-18T07:53:47.814Z,153033.16
2023-05-18T07:56:18.615Z,153046.13
2023-05-18T07:58:49.217Z,153055.22
2023-05-18T08:01:19.572Z,153070.75
2023-05-18T08:03:52.890Z,153085.00
2023-05-18T08:06:24.115Z,153145.84
2023-05-18T08:08:56.880Z,153139.38
2023-05-18T08:11:27.324Z,153169.16
2023-05-18T08:13:57.416Z,153138.06
2023-05-18T08:16:28.310Z,153144.56
2023-05-18T08:19:01.503Z,153164.00
2023-05-18T08:21:31.805Z,153186.00
2023-05-18T08:24:02.968Z,153209.31
2023-05-18T08:26:33.234Z,153208.00
2023-05-18T08:29:09.974Z,153230.03
2023-05-18T08:32:03.444Z,153183.38
2023-05-18T08:34:39.311Z,153237.78
2023-05-18T08:37:09.950Z,153276.66
2023-05-18T08:39:40.657Z,153289.63
2023-05-18T08:42:15.140Z,153294.81
2023-05-18T08:44:52.232Z,153280.56
2023-05-18T08:47:26.912Z,153268.91
2023-05-18T08:50:02.785Z,153311.66
2023-05-18T08:52:38.407Z,153280.56
2023-05-18T08:55:12.124Z,153267.59
2023-05-18T08:57:45.774Z,153290.94
2023-05-18T09:00:17.626Z,153248.19
2023-05-18T09:02:51.130Z,153240.41
2023-05-18T09:05:26.611Z,153268.91
2023-05-18T09:07:59.521Z,153311.66
2023-05-18T09:10:30.207Z,153305.19
2023-05-18T09:13:02.999Z,153305.19
2023-05-18T09:15:35.620Z,153332.41
2023-05-18T09:18:06.191Z,153310.38
2023-05-18T09:20:39.551Z,153335.00
2023-05-18T09:23:12.674Z,153331.09
2023-05-18T09:25:50.118Z,153348.00
2023-05-18T09:28:31.048Z,153338.88
2023-05-18T09:31:05.290Z,153337.59
2023-05-18T09:33:38.344Z,153353.19
2023-05-18T09:36:15.503Z,153341.44
2023-05-18T09:38:47.369Z,153331.09
2023-05-18T09:41:19.641Z,153359.66
2023-05-18T09:43:52.105Z,153385.56
2023-05-18T09:46:23.280Z,153351.84
2023-05-18T09:48:59.806Z,153407.63
2023-05-18T09:51:33.148Z,153427.06
2023-05-18T09:54:05.340Z,153414.09
2023-05-18T09:56:39.508Z,153425.75
2023-05-18T09:59:14.416Z,153430.91
2023-05-18T10:02:01.284Z,153442.63
2023-05-18T10:04:43.219Z,153451.69
2023-05-18T10:07:20.503Z,153434.81
2023-05-18T10:10:04.091Z,153462.06
2023-05-18T10:12:34.676Z,153460.72
2023-05-18T10:15:05.445Z,153437.44
2023-05-18T10:17:38.133Z,153473.72
2023-05-18T10:20:13.182Z,153477.63
2023-05-18T10:22:49.302Z,153459.44
2023-05-18T10:25:24.724Z,153443.91
2023-05-18T10:27:59.803Z,153428.34
2023-05-18T10:30:33.347Z,153447.81
2023-05-18T10:33:11.349Z,153446.53
2023-05-18T10:35:49.657Z,153450.38
2023-05-18T10:38:26.317Z,153447.81
2023-05-18T10:40:58.872Z,153452.97
2023-05-18T10:43:31.082Z,153484.09
2023-05-18T10:46:03.834Z,153441.34
2023-05-18T10:48:34.732Z,153432.25
2023-05-18T10:51:07.958Z,153447.81
2023-05-18T10:53:44.455Z,153447.81
2023-05-18T10:56:14.747Z,153446.53
2023-05-18T10:58:47.974Z,153449.09
2023-05-18T11:01:19.551Z,153455.56
2023-05-18T11:03:52.915Z,153462.06
2023-05-18T11:06:27.753Z,153450.38
2023-05-18T11:09:02.201Z,153442.63
2023-05-18T11:11:33.640Z,153447.81
2023-05-18T11:14:05.145Z,153437.44
2023-05-18T11:16:41.185Z,153468.53
2023-05-18T11:19:12.954Z,153455.56
2023-05-18T11:21:57.030Z,153504.81
2023-05-18T11:24:34.933Z,153506.16
2023-05-18T11:27:10.781Z,153548.91
2023-05-18T11:29:45.333Z,153500.97
2023-05-18T11:32:56.424Z,153535.97
2023-05-18T11:35:31.464Z,153528.16
2023-05-18T11:38:13.182Z,153506.16
2023-05-18T11:41:11.406Z,153585.25
2023-05-18T11:44:17.926Z,153520.38
2023-05-18T11:47:03.737Z,153583.91
2023-05-18T11:49:46.956Z,153572.25
2023-05-18T11:52:28.104Z,153611.19
2023-05-18T11:55:01.416Z,153659.19
2023-05-18T11:57:43.350Z,153670.84
2023-05-18T12:00:16.011Z,153655.28
2023-05-18T12:02:48.779Z,153653.94
2023-05-18T12:05:19.332Z,153677.31
2023-05-18T12:07:56.921Z,153668.22
2023-05-18T12:10:27.484Z,153733.13
2023-05-18T12:13:00.807Z,153765.56
2023-05-18T12:15:34.559Z,153765.56
2023-05-18T12:18:05.124Z,153746.09
2023-05-18T12:20:35.875Z,153775.94
2023-05-18T12:23:06.227Z,153739.63
2023-05-18T12:25:36.752Z,153711.09
2023-05-18T12:28:09.689Z,153700.72
2023-05-18T12:30:40.188Z,153647.47
2023-05-18T12:33:11.134Z,153673.41
2023-05-18T12:35:41.398Z,153676.03
2023-05-18T12:38:12.093Z,153695.47
2023-05-18T12:40:49.032Z,153717.56
2023-05-18T12:43:22.283Z,153689.00
2023-05-18T12:45:53.009Z,153659.19
2023-05-18T12:48:26.832Z,153703.28
2023-05-18T12:50:57.029Z,153702.00
2023-05-18T12:53:27.419Z,153716.28
2023-05-18T12:56:01.945Z,153718.91
2023-05-18T12:58:34.862Z,153756.47
2023-05-18T13:01:12.510Z,153734.44
2023-05-18T13:03:43.673Z,153727.94
2023-05-18T13:06:14.089Z,153712.38
2023-05-18T13:08:44.490Z,153691.56
2023-05-18T13:11:17.118Z,153725.34
2023-05-18T13:14:06.474Z,153724.06
2023-05-18T13:16:38.399Z,153725.34
2023-05-18T13:19:10.924Z,153785.03
2023-05-18T13:21:41.380Z,153808.41
2023-05-18T13:24:11.956Z,153794.13
2023-05-18T13:26:42.150Z,153830.44
2023-05-18T13:29:15.420Z,153818.78
2023-05-18T13:31:46.445Z,153799.31
2023-05-18T13:34:17.189Z,153847.28
2023-05-18T13:36:47.931Z,153887.56
2023-05-18T13:39:18.256Z,153895.31
2023-05-18T13:41:48.452Z,153860.28
2023-05-18T13:44:21.731Z,153868.09
2023-05-18T13:46:52.266Z,153813.59
2023-05-18T13:49:23.136Z,153795.41
2023-05-18T13:51:53.874Z,153820.06
2023-05-18T13:54:24.131Z,153809.69
2023-05-18T13:56:54.919Z,153818.78
2023-05-18T13:59:28.534Z,153803.22
2023-05-18T14:01:58.767Z,153774.66
2023-05-18T14:04:29.489Z,153738.31
2023-05-18T14:07:00.277Z,153760.38
2023-05-18T14:09:31.148Z,153735.75
2023-05-18T14:12:01.440Z,153716.28
2023-05-18T14:14:34.503Z,153682.50
2023-05-18T14:17:05.028Z,153702.00
2023-05-18T14:19:35.628Z,153666.94
2023-05-18T14:22:05.955Z,153665.66
2023-05-18T14:24:36.340Z,153676.03
2023-05-18T14:27:07.326Z,153669.53
2023-05-18T14:29:40.348Z,153651.38
2023-05-18T14:32:11.538Z,153651.38
2023-05-18T14:34:42.074Z,153663.03
2023-05-18T14:37:15.479Z,153698.03
2023-05-18T14:39:46.024Z,153704.63
2023-05-18T14:42:16.852Z,153698.03
2023-05-18T14:44:50.216Z,153696.75
2023-05-18T14:47:22.521Z,153681.22
2023-05-18T14:49:53.277Z,153660.47
2023-05-18T14:52:23.403Z,153702.00
2023-05-18T14:54:53.584Z,153709.81
2023-05-18T14:57:26.529Z,153678.59
2023-05-18T15:00:00.769Z,153673.41
2023-05-18T15:02:31.333Z,153678.59
2023-05-18T15:05:02.223Z,153650.09
2023-05-18T15:07:32.743Z,153666.94
2023-05-18T15:10:03.137Z,153668.22
2023-05-18T15:12:33.535Z,153644.91
2023-05-18T15:15:06.900Z,153594.28
2023-05-18T15:17:37.086Z,153594.28
2023-05-18T15:20:08.378Z,153586.53
2023-05-18T15:22:40.617Z,153586.53
2023-05-18T15:25:14.245Z,153626.72
2023-05-18T15:27:44.954Z,153631.91
2023-05-18T15:30:19.085Z,153625.44
2023-05-18T15:32:49.583Z,153648.75
2023-05-18T15:35:19.834Z,153598.19
2023-05-18T15:37:50.398Z,153617.63
2023-05-18T15:40:21.245Z,153603.38
2023-05-18T15:42:51.903Z,153581.34
2023-05-18T15:45:26.732Z,153594.28
2023-05-18T15:47:57.278Z,153599.47
2023-05-18T15:50:27.789Z,153587.81
2023-05-18T15:52:57.941Z,153599.47
2023-05-18T15:55:28.524Z,153594.28
2023-05-18T15:57:59.259Z,153599.47
2023-05-18T16:00:33.097Z,153613.75
2023-05-18T16:03:03.842Z,153626.72
2023-05-18T16:05:34.458Z,153642.28
2023-05-18T16:08:04.762Z,153656.56
2023-05-18T16:10:36.897Z,153647.47
2023-05-18T16:13:07.888Z,153672.13
2023-05-18T16:15:42.494Z,153657.84
2023-05-18T16:18:12.837Z,153678.59
2023-05-18T16:20:43.384Z,153679.91
2023-05-18T16:23:15.478Z,153660.47
2023-05-18T16:25:45.970Z,153677.31
2023-05-18T16:28:16.272Z,153672.13
2023-05-18T16:30:50.228Z,153678.59
2023-05-18T16:33:20.715Z,153652.66
2023-05-18T16:35:51.310Z,153648.75
2023-05-18T16:38:22.734Z,153647.47
2023-05-18T16:40:53.295Z,153648.75
2023-05-18T16:43:24.062Z,153616.34
2023-05-18T16:45:57.775Z,153629.28
2023-05-18T16:48:28.608Z,153624.09
2023-05-18T16:50:59.039Z,153631.91
2023-05-18T16:53:29.262Z,153607.28
2023-05-18T16:55:59.667Z,153598.19
2023-05-18T16:58:30.239Z,153598.19
2023-05-18T17:01:09.822Z,153593.00
2023-05-18T17:03:46.431Z,153593.00
2023-05-18T17:06:17.332Z,153608.56
2023-05-18T17:08:48.097Z,153603.38
2023-05-18T17:11:18.307Z,153599.47
2023-05-18T17:13:49.096Z,153599.47
2023-05-18T17:16:23.091Z,153593.00
2023-05-18T17:18:54.817Z,153604.72
2023-05-18T17:21:27.224Z,153581.34
2023-05-18T17:23:57.571Z,153587.81
2023-05-18T17:26:30.767Z,153598.19
2023-05-18T17:29:01.725Z,153600.81
2023-05-18T17:31:34.789Z,153583.91
2023-05-18T17:34:05.250Z,153577.44
2023-05-18T17:36:35.855Z,153583.91
2023-05-18T17:39:07.134Z,153582.63
2023-05-18T17:41:37.678Z,153585.25
2023-05-18T17:44:08.342Z,153590.44
2023-05-18T17:46:42.268Z,153568.34
2023-05-18T17:49:12.616Z,153568.34
2023-05-18T17:51:43.007Z,153555.44
2023-05-18T17:54:13.880Z,153563.19
2023-05-18T17:56:44.246Z,153567.06
2023-05-18T17:59:15.039Z,153555.44
2023-05-18T18:01:48.047Z,153537.25
2023-05-18T18:04:18.584Z,153550.25
2023-05-18T18:06:54.593Z,153539.81
2023-05-18T18:09:27.953Z,153528.16
2023-05-18T18:12:01.264Z,153541.16
2023-05-18T18:14:31.560Z,153541.16
2023-05-18T18:17:04.990Z,153539.81
2023-05-18T18:19:35.413Z,153538.53
2023-05-18T18:22:05.872Z,153530.78
2023-05-18T18:24:36.663Z,153523.00
2023-05-18T18:27:15.439Z,153523.00
2023-05-18T18:30:04.075Z,153524.28
2023-05-18T18:32:37.952Z,153530.78
2023-05-18T18:35:19.922Z,153545.00
2023-05-18T18:37:59.637Z,153528.16
2023-05-18T18:40:32.768Z,153541.16
2023-05-18T18:43:08.153Z,153548.91
2023-05-18T18:45:43.008Z,153532.06
2023-05-18T18:48:21.762Z,153526.88
2023-05-18T18:50:52.545Z,153529.47
2023-05-18T18:53:23.595Z,153529.47
2023-05-18T18:55:56.800Z,153530.78
2023-05-18T18:58:27.542Z,153530.78
2023-05-18T19:00:58.167Z,153523.00
2023-05-18T19:03:34.600Z,153555.44
2023-05-18T19:06:06.901Z,153520.38
2023-05-18T19:08:37.461Z,153529.47
2023-05-18T19:11:08.244Z,153542.44
2023-05-18T19:13:38.764Z,153532.06
2023-05-18T19:16:09.511Z,153524.28
2023-05-18T19:18:44.953Z,153512.63
2023-05-18T19:21:15.524Z,153502.25
2023-05-18T19:23:45.933Z,153507.44
2023-05-18T19:26:16.472Z,153517.81
2023-05-18T19:28:46.941Z,153517.81
2023-05-18T19:31:19.565Z,153517.81
2023-05-18T19:33:52.868Z,153512.63
2023-05-18T19:36:24.011Z,153551.53
2023-05-18T19:38:54.680Z,153521.69
2023-05-18T19:41:25.468Z,153510.00
2023-05-18T19:43:56.031Z,153512.63
2023-05-18T19:46:26.344Z,153507.44
2023-05-18T19:48:59.684Z,153506.16
2023-05-18T19:51:30.532Z,153513.91
2023-05-18T19:54:00.842Z,153504.81
2023-05-18T19:56:31.444Z,153508.72
2023-05-18T19:59:01.690Z,153499.63
2023-05-18T20:01:32.701Z,153499.63
2023-05-18T20:04:06.505Z,153490.56
2023-05-18T20:06:37.229Z,153498.34
2023-05-18T20:09:07.491Z,153494.44
2023-05-18T20:11:38.193Z,153494.44
2023-05-18T20:14:08.698Z,153504.81
2023-05-18T20:16:41.057Z,153499.63
2023-05-18T20:19:14.215Z,153497.06
2023-05-18T20:21:44.552Z,153477.63
2023-05-18T20:24:15.295Z,153486.69
2023-05-18T20:26:46.190Z,153491.88
2023-05-18T20:29:16.476Z,153494.44
2023-05-18T20:31:47.113Z,153503.53
2023-05-18T20:34:20.140Z,153507.44
2023-05-18T20:36:50.485Z,153482.81
2023-05-18T20:39:20.893Z,153486.69
2023-05-18T20:41:51.466Z,153477.63
2023-05-18T20:44:23.837Z,153476.34
2023-05-18T20:46:54.549Z,153482.81
2023-05-18T20:49:28.025Z,153482.81
2023-05-18T20:51:58.458Z,153482.81
2023-05-18T20:54:29.839Z,153485.38
2023-05-18T20:57:00.385Z,153482.81
2023-05-18T20:59:30.889Z,153478.91
2023-05-18T21:02:01.434Z,153487.97
2023-05-18T21:04:34.953Z,153494.44
2023-05-18T21:07:05.793Z,153478.91
2023-05-18T21:09:36.050Z,153487.97
2023-05-18T21:12:06.318Z,153471.16
2023-05-18T21:14:38.121Z,153475.00
2023-05-18T21:17:09.246Z,153473.72
2023-05-18T21:19:42.476Z,153478.91
2023-05-18T21:22:13.992Z,153493.16
2023-05-18T21:24:44.535Z,153485.38
2023-05-18T21:27:15.072Z,153478.91
2023-05-18T21:29:45.808Z,153480.19
2023-05-18T21:32:16.727Z,153477.63
2023-05-18T21:34:50.079Z,153478.91
2023-05-18T21:37:20.449Z,153471.16
2023-05-18T21:39:51.197Z,153475.00
2023-05-18T21:42:21.872Z,153486.69
2023-05-18T21:44:52.654Z,153476.34
2023-05-18T21:47:23.229Z,153481.50
2023-05-18T21:49:56.100Z,153475.00
2023-05-18T21:52:26.498Z,153476.34
2023-05-18T21:54:56.717Z,153478.91
2023-05-18T21:57:27.467Z,153480.19
2023-05-18T21:59:57.632Z,153478.91
2023-05-18T22:02:27.914Z,153487.97
2023-05-18T22:05:01.309Z,153495.78
2023-05-18T22:07:32.036Z,153498.34
2023-05-18T22:10:02.600Z,153489.28
2023-05-18T22:12:33.553Z,153476.34
2023-05-18T22:15:04.100Z,153489.28
2023-05-18T22:17:35.027Z,153491.88
2023-05-18T22:20:10.305Z,153486.69
2023-05-18T22:22:40.937Z,153464.63
2023-05-18T22:25:12.100Z,153493.16
2023-05-18T22:27:44.198Z,153465.97
2023-05-18T22:30:15.777Z,153463.34
2023-05-18T22:32:47.638Z,153476.34
2023-05-18T22:35:20.678Z,153494.44
2023-05-18T22:37:51.203Z,153480.19
2023-05-18T22:40:21.774Z,153454.28
2023-05-18T22:42:53.682Z,153464.63
2023-05-18T22:45:27.668Z,153458.16
2023-05-18T22:47:58.201Z,153438.72
2023-05-18T22:50:31.457Z,153432.25
2023-05-18T22:53:02.560Z,153454.28
2023-05-18T22:55:32.999Z,153441.34
2023-05-18T22:58:03.419Z,153425.75
2023-05-18T23:00:34.931Z,153420.56
2023-05-18T23:03:07.532Z,153437.44
2023-05-18T23:05:41.411Z,153429.63
2023-05-18T23:08:11.906Z,153428.34
2023-05-18T23:10:42.328Z,153421.88
2023-05-18T23:13:12.656Z,153427.06
2023-05-18T23:15:43.162Z,153416.72
2023-05-18T23:18:13.581Z,153420.56
2023-05-18T23:20:46.622Z,153408.91
2023-05-18T23:23:17.009Z,153437.44
2023-05-18T23:25:47.501Z,153434.81
2023-05-18T23:28:17.823Z,153420.56
2023-05-18T23:30:49.835Z,153418.00
2023-05-18T23:33:20.695Z,153432.25
2023-05-18T23:35:55.073Z,153425.75
2023-05-18T23:38:29.179Z,153428.34
2023-05-18T23:41:00.497Z,153424.47
2023-05-18T23:43:31.613Z,153419.28
2023-05-18T23:46:02.843Z,153433.53
2023-05-18T23:48:33.796Z,153428.34
2023-05-18T23:51:07.592Z,153430.91
2023-05-18T23:53:38.666Z,153418.00
2023-05-18T23:56:10.496Z,153425.75
2023-05-18T23:58:43.598Z,153442.63
